createdAt,value
2022-11-07T00:00:14.615Z,12.48
2022-11-07T00:01:20.840Z,11.77
2022-11-07T00:02:23.715Z,12.57
2022-11-07T00:03:27.906Z,13.02
2022-11-07T00:04:31.130Z,12.35
2022-11-07T00:05:34.879Z,12.93
2022-11-07T00:06:38.036Z,14.18
2022-11-07T00:07:41.796Z,13.27
2022-11-07T00:08:45.926Z,12.85
2022-11-07T00:09:49.688Z,13.52
2022-11-07T00:10:54.945Z,12.23
2022-11-07T00:11:58.763Z,14.43
2022-11-07T00:13:01.446Z,14.45
2022-11-07T00:14:05.188Z,14.77
2022-11-07T00:15:08.687Z,15.55
2022-11-07T00:16:12.806Z,16.13
2022-11-07T00:17:15.577Z,17.08
2022-11-07T00:18:19.326Z,16.58
2022-11-07T00:19:22.687Z,15.98
2022-11-07T00:20:26.517Z,16.80
2022-11-07T00:21:29.290Z,16.52
2022-11-07T00:22:33.069Z,15.60
2022-11-07T00:23:36.209Z,16.55
2022-11-07T00:24:42.124Z,16.90
2022-11-07T00:25:44.829Z,15.27
2022-11-07T00:26:49.115Z,15.95
2022-11-07T00:27:52.047Z,15.18
2022-11-07T00:28:56.582Z,16.33
2022-11-07T00:29:59.255Z,15.43
2022-11-07T00:31:03.118Z,15.57
2022-11-07T00:32:07.245Z,16.65
2022-11-07T00:33:09.944Z,17.42
2022-11-07T00:34:13.777Z,15.65
2022-11-07T00:35:17.645Z,16.98
2022-11-07T00:36:22.265Z,16.25
2022-11-07T00:37:26.047Z,16.70
2022-11-07T00:38:28.905Z,16.35
2022-11-07T00:39:32.665Z,14.77
2022-11-07T00:40:36.736Z,14.32
2022-11-07T00:41:40.518Z,14.70
2022-11-07T00:42:44.267Z,13.90
2022-11-07T00:43:47.007Z,13.45
2022-11-07T00:44:50.707Z,13.27
2022-11-07T00:45:53.468Z,12.38
2022-11-07T00:46:57.279Z,13.30
2022-11-07T00:48:24.679Z,12.73
2022-11-07T00:49:28.426Z,13.35
2022-11-07T00:50:31.586Z,12.35
2022-11-07T00:51:35.276Z,13.70
2022-11-07T00:52:38.075Z,13.85
2022-11-07T00:53:42.009Z,14.27
2022-11-07T00:54:44.639Z,13.68
2022-11-07T00:55:49.768Z,14.45
2022-11-07T00:56:52.487Z,14.00
2022-11-07T00:57:57.317Z,14.73
2022-11-07T00:59:00.779Z,14.65
2022-11-07T01:00:05.598Z,16.02
2022-11-07T01:01:09.407Z,15.43
2022-11-07T01:02:13.210Z,15.23
2022-11-07T01:03:34.354Z,14.93
2022-11-07T01:04:56.139Z,15.32
2022-11-07T01:06:00.020Z,14.70
2022-11-07T01:07:03.939Z,13.60
2022-11-07T01:08:07.177Z,15.35
2022-11-07T01:09:12.587Z,14.80
2022-11-07T01:10:15.308Z,15.20
2022-11-07T01:11:20.529Z,15.00
2022-11-07T01:12:24.258Z,14.93
2022-11-07T01:13:27.129Z,14.30
2022-11-07T01:14:31.027Z,14.50
2022-11-07T01:15:33.835Z,14.98
2022-11-07T01:16:39.058Z,14.30
2022-11-07T01:17:41.826Z,14.63
2022-11-07T01:18:45.540Z,14.93
2022-11-07T01:19:48.189Z,14.13
2022-11-07T01:20:51.997Z,14.73
2022-11-07T01:21:54.719Z,14.52
2022-11-07T01:22:58.535Z,15.45
2022-11-07T01:24:03.670Z,14.50
2022-11-07T01:25:08.109Z,16.70
2022-11-07T01:26:12.988Z,14.65
2022-11-07T01:27:18.057Z,14.00
2022-11-07T01:28:20.742Z,14.80
2022-11-07T01:29:24.456Z,14.65
2022-11-07T01:30:27.238Z,14.75
2022-11-07T01:31:32.531Z,15.00
2022-11-07T01:32:35.277Z,14.55
2022-11-07T01:33:39.489Z,14.88
2022-11-07T01:34:42.235Z,15.30
2022-11-07T01:35:45.928Z,15.65
2022-11-07T01:36:48.649Z,15.27
2022-11-07T01:37:52.438Z,15.30
2022-11-07T01:38:55.335Z,15.02
2022-11-07T01:39:59.105Z,15.48
2022-11-07T01:41:20.190Z,14.35
2022-11-07T01:42:25.469Z,15.77
2022-11-07T01:43:42.368Z,17.52
2022-11-07T01:44:56.219Z,16.02
2022-11-07T01:45:58.876Z,17.50
2022-11-07T01:47:03.036Z,16.40
2022-11-07T01:48:05.906Z,16.70
2022-11-07T01:49:12.727Z,15.85
2022-11-07T01:50:15.419Z,16.17
2022-11-07T01:51:19.759Z,15.98
2022-11-07T01:52:24.628Z,15.93
2022-11-07T01:53:28.548Z,13.55
2022-11-07T01:54:33.765Z,15.68
2022-11-07T01:55:37.707Z,13.77
2022-11-07T01:56:42.518Z,13.68
2022-11-07T01:57:50.545Z,14.20
2022-11-07T01:58:53.903Z,14.30
2022-11-07T02:00:00.305Z,14.15
2022-11-07T02:01:03.068Z,14.18
2022-11-07T02:02:07.076Z,14.13
2022-11-07T02:03:12.335Z,14.02
2022-11-07T02:04:17.861Z,14.02
2022-11-07T02:05:24.856Z,13.10
2022-11-07T02:06:36.639Z,11.98
2022-11-07T02:07:39.821Z,13.00
2022-11-07T02:08:45.727Z,12.98
2022-11-07T02:09:48.887Z,12.80
2022-11-07T02:10:53.115Z,12.98
2022-11-07T02:12:01.175Z,13.52
2022-11-07T02:13:06.547Z,12.57
2022-11-07T02:14:14.707Z,12.60
2022-11-07T02:15:17.587Z,12.85
2022-11-07T02:16:21.377Z,12.48
2022-11-07T02:17:24.137Z,13.13
2022-11-07T02:18:29.260Z,13.25
2022-11-07T02:19:35.264Z,12.90
2022-11-07T02:20:38.995Z,12.95
2022-11-07T02:21:47.316Z,12.77
2022-11-07T02:22:55.347Z,12.48
2022-11-07T02:24:01.219Z,13.20
2022-11-07T02:25:09.140Z,12.98
2022-11-07T02:26:12.170Z,12.70
2022-11-07T02:27:17.656Z,13.38
2022-11-07T02:28:22.078Z,13.30
2022-11-07T02:29:27.204Z,12.55
2022-11-07T02:30:33.940Z,12.25
2022-11-07T02:31:37.718Z,12.85
2022-11-07T02:32:40.605Z,12.45
2022-11-07T02:33:44.397Z,12.57
2022-11-07T02:34:56.098Z,12.30
2022-11-07T02:35:59.917Z,12.95
2022-11-07T02:37:04.049Z,12.38
2022-11-07T02:38:10.988Z,12.68
2022-11-07T02:39:13.716Z,12.80
2022-11-07T02:40:19.266Z,13.00
2022-11-07T02:41:24.004Z,13.45
2022-11-07T02:42:43.620Z,13.20
2022-11-07T02:43:49.975Z,13.77
2022-11-07T02:44:54.289Z,13.32
2022-11-07T02:45:59.521Z,13.50
2022-11-07T02:47:02.346Z,13.82
2022-11-07T02:48:06.930Z,13.98
2022-11-07T02:49:09.697Z,13.80
2022-11-07T02:50:15.079Z,14.18
2022-11-07T02:51:18.326Z,13.25
2022-11-07T02:52:22.217Z,12.35
2022-11-07T02:53:25.042Z,13.70
2022-11-07T02:54:28.826Z,13.38
2022-11-07T02:55:32.976Z,12.30
2022-11-07T02:56:36.711Z,14.18
2022-11-07T02:57:39.458Z,12.98
2022-11-07T02:58:43.421Z,12.73
2022-11-07T02:59:46.076Z,12.75
2022-11-07T03:00:49.797Z,12.60
2022-11-07T03:01:52.630Z,12.13
2022-11-07T03:02:56.589Z,13.23
2022-11-07T03:03:59.469Z,13.13
2022-11-07T03:05:03.259Z,11.95
2022-11-07T03:06:07.066Z,14.07
2022-11-07T03:07:10.777Z,13.48
2022-11-07T03:08:13.537Z,13.82
2022-11-07T03:09:17.264Z,12.55
2022-11-07T03:10:20.069Z,11.85
2022-11-07T03:11:25.197Z,13.00
2022-11-07T03:12:27.891Z,12.00
2022-11-07T03:13:31.671Z,12.93
2022-11-07T03:14:34.501Z,12.95
2022-11-07T03:15:38.286Z,12.43
2022-11-07T03:16:42.016Z,12.85
2022-11-07T03:17:44.755Z,12.95
2022-11-07T03:18:48.507Z,13.88
2022-11-07T03:19:51.227Z,13.02
2022-11-07T03:20:54.989Z,12.98
2022-11-07T03:21:57.707Z,12.77
2022-11-07T03:23:01.424Z,12.00
2022-11-07T03:24:04.617Z,12.43
2022-11-07T03:25:09.578Z,13.05
2022-11-07T03:26:12.272Z,12.55
2022-11-07T03:27:17.548Z,11.50
2022-11-07T03:28:20.298Z,11.70
2022-11-07T03:29:23.988Z,11.73
2022-11-07T03:30:26.687Z,11.27
2022-11-07T03:31:30.439Z,11.15
2022-11-07T03:32:35.054Z,11.07
2022-11-07T03:33:38.803Z,11.38
2022-11-07T03:34:41.574Z,11.68
2022-11-07T03:35:45.308Z,12.20
2022-11-07T03:36:47.988Z,12.57
2022-11-07T03:37:51.991Z,11.20
2022-11-07T03:38:54.711Z,12.27
2022-11-07T03:39:58.418Z,11.05
2022-11-07T03:41:01.198Z,12.02
2022-11-07T03:42:05.098Z,11.55
2022-11-07T03:43:09.220Z,11.40
2022-11-07T03:44:13.009Z,11.05
2022-11-07T03:45:16.422Z,10.98
2022-11-07T03:46:20.238Z,9.73
2022-11-07T03:47:22.948Z,10.60
2022-11-07T03:48:26.681Z,10.88
2022-11-07T03:49:29.347Z,9.95
2022-11-07T03:50:33.121Z,12.82
2022-11-07T03:51:35.978Z,12.35
2022-11-07T03:52:39.664Z,12.27
2022-11-07T03:53:43.357Z,11.25
2022-11-07T03:54:46.110Z,11.52
2022-11-07T03:55:49.929Z,11.93
2022-11-07T03:56:52.622Z,12.18
2022-11-07T03:57:56.366Z,12.32
2022-11-07T03:59:00.548Z,13.02
2022-11-07T04:00:05.118Z,12.40
2022-11-07T04:01:14.455Z,11.88
2022-11-07T04:02:18.433Z,11.50
2022-11-07T04:03:21.139Z,11.18
2022-11-07T04:04:24.909Z,12.40
2022-11-07T04:05:27.597Z,11.95
2022-11-07T04:06:31.430Z,11.82
2022-11-07T04:07:34.070Z,11.18
2022-11-07T04:08:37.888Z,11.50
2022-11-07T04:09:40.642Z,11.82
2022-11-07T04:10:44.376Z,11.73
2022-11-07T04:12:07.517Z,11.32
2022-11-07T04:13:28.908Z,11.68
2022-11-07T04:14:51.186Z,10.20
2022-11-07T04:16:32.285Z,11.10
2022-11-07T04:17:56.031Z,11.90
2022-11-07T04:19:19.710Z,12.05
2022-11-07T04:20:43.447Z,12.15
2022-11-07T04:22:07.170Z,12.07
2022-11-07T04:23:30.848Z,12.10
2022-11-07T04:24:53.648Z,11.02
2022-11-07T04:26:35.188Z,11.23
2022-11-07T04:27:58.819Z,12.30
2022-11-07T04:29:22.563Z,11.57
2022-11-07T04:30:47.600Z,11.25
2022-11-07T04:32:11.333Z,11.68
2022-11-07T04:33:35.090Z,11.32
2022-11-07T04:34:57.778Z,12.65
2022-11-07T04:36:27.547Z,13.38
2022-11-07T04:37:51.560Z,11.55
2022-11-07T04:39:15.297Z,12.30
2022-11-07T04:40:39.027Z,11.90
2022-11-07T04:42:01.717Z,12.48
2022-11-07T04:43:26.320Z,12.60
2022-11-07T04:44:49.998Z,12.93
2022-11-07T04:46:15.399Z,12.68
2022-11-07T04:47:40.569Z,13.38
2022-11-07T04:49:04.739Z,13.40
2022-11-07T04:50:28.422Z,14.00
2022-11-07T04:51:55.798Z,14.02
2022-11-07T04:53:20.198Z,12.75
2022-11-07T04:54:42.907Z,21.23
2022-11-07T04:56:06.916Z,19.60
2022-11-07T04:57:29.550Z,16.25
2022-11-07T04:58:53.291Z,15.20
2022-11-07T05:00:09.530Z,14.70
2022-11-07T05:01:34.628Z,14.30
2022-11-07T05:02:58.456Z,13.68
2022-11-07T05:04:21.138Z,14.35
2022-11-07T05:05:44.840Z,30.65
2022-11-07T05:07:08.974Z,65.53
2022-11-07T05:08:32.737Z,33.40
2022-11-07T05:09:55.348Z,18.65
2022-11-07T05:10:59.120Z,13.48
2022-11-07T05:12:21.728Z,11.25
2022-11-07T05:13:45.461Z,12.20
2022-11-07T05:14:59.558Z,10.63
2022-11-07T05:16:22.240Z,11.20
2022-11-07T05:17:47.522Z,10.10
2022-11-07T05:19:14.488Z,12.20
2022-11-07T05:20:39.739Z,16.00
2022-11-07T05:22:20.449Z,17.05
2022-11-07T05:23:44.148Z,14.18
2022-11-07T05:25:07.991Z,15.98
2022-11-07T05:26:31.699Z,26.02
2022-11-07T05:27:55.825Z,22.92
2022-11-07T05:29:19.587Z,25.25
2022-11-07T05:30:44.077Z,22.90
2022-11-07T05:32:07.985Z,20.55
2022-11-07T05:33:26.848Z,21.15
2022-11-07T05:34:50.707Z,20.42
2022-11-07T05:36:15.810Z,20.52
2022-11-07T05:37:39.569Z,20.92
2022-11-07T05:39:03.287Z,19.10
2022-11-07T05:40:25.976Z,18.83
2022-11-07T05:41:49.640Z,18.10
2022-11-07T05:43:14.701Z,17.55
2022-11-07T05:44:38.706Z,18.30
2022-11-07T05:46:02.879Z,18.45
2022-11-07T05:47:26.572Z,18.73
2022-11-07T05:48:55.348Z,19.45
2022-11-07T05:50:20.649Z,16.02
2022-11-07T05:51:44.389Z,16.90
2022-11-07T05:53:08.932Z,17.13
2022-11-07T05:54:33.259Z,18.23
2022-11-07T05:55:57.179Z,19.42
2022-11-07T05:57:20.946Z,19.63
2022-11-07T05:58:44.623Z,20.30
2022-11-07T06:00:09.965Z,20.70
2022-11-07T06:01:35.711Z,20.73
2022-11-07T06:03:01.196Z,20.42
2022-11-07T06:04:26.539Z,21.35
2022-11-07T06:05:49.247Z,20.45
2022-11-07T06:07:12.902Z,19.80
2022-11-07T06:08:36.709Z,19.35
2022-11-07T06:10:00.405Z,20.30
2022-11-07T06:11:24.150Z,19.17
2022-11-07T06:12:50.329Z,20.40
2022-11-07T06:14:17.590Z,20.38
2022-11-07T06:15:42.158Z,20.33
2022-11-07T06:17:05.888Z,20.30
2022-11-07T06:18:29.659Z,27.15
2022-11-07T06:19:54.728Z,27.17
2022-11-07T06:21:18.485Z,24.75
2022-11-07T06:22:41.139Z,23.58
2022-11-07T06:24:04.884Z,22.85
2022-11-07T06:25:27.810Z,23.27
2022-11-07T06:26:51.493Z,25.60
2022-11-07T06:28:12.289Z,27.50
2022-11-07T06:29:36.080Z,25.00
2022-11-07T06:31:01.459Z,26.17
2022-11-07T06:32:25.177Z,25.20
2022-11-07T06:33:51.494Z,23.55
2022-11-07T06:35:16.738Z,23.33
2022-11-07T06:36:40.423Z,22.40
2022-11-07T06:38:04.941Z,21.38
2022-11-07T06:39:28.748Z,21.92
2022-11-07T06:40:52.451Z,22.88
2022-11-07T06:42:16.137Z,22.85
2022-11-07T06:43:40.249Z,22.42
2022-11-07T06:45:04.029Z,23.15
2022-11-07T06:46:27.834Z,22.35
2022-11-07T06:47:50.479Z,22.92
2022-11-07T06:49:14.267Z,20.70
2022-11-07T06:50:40.074Z,25.05
2022-11-07T06:52:03.807Z,24.35
2022-11-07T06:53:27.913Z,23.23
2022-11-07T06:54:51.542Z,25.38
2022-11-07T06:56:17.160Z,34.63
2022-11-07T06:57:40.889Z,33.45
2022-11-07T06:59:04.640Z,28.70
2022-11-07T07:00:28.643Z,22.30
2022-11-07T07:01:52.438Z,24.30
2022-11-07T07:03:16.394Z,23.13
2022-11-07T07:04:40.362Z,23.42
2022-11-07T07:06:06.990Z,23.23
2022-11-07T07:07:31.219Z,22.48
2022-11-07T07:08:54.950Z,22.00
2022-11-07T07:10:19.276Z,21.48
2022-11-07T07:11:45.335Z,22.60
2022-11-07T07:13:09.117Z,21.92
2022-11-07T07:14:32.799Z,22.67
2022-11-07T07:15:57.207Z,22.50
2022-11-07T07:17:20.869Z,22.33
2022-11-07T07:18:44.518Z,25.02
2022-11-07T07:20:09.328Z,23.00
2022-11-07T07:21:35.289Z,22.50
2022-11-07T07:23:04.412Z,23.30
2022-11-07T07:24:29.348Z,23.30
2022-11-07T07:25:53.058Z,24.75
2022-11-07T07:27:16.715Z,25.25
2022-11-07T07:28:40.428Z,24.70
2022-11-07T07:30:04.151Z,24.13
2022-11-07T07:31:31.791Z,25.23
2022-11-07T07:32:54.370Z,24.83
2022-11-07T07:34:18.050Z,24.70
2022-11-07T07:35:40.676Z,24.35
2022-11-07T07:37:05.869Z,23.20
2022-11-07T07:38:29.689Z,21.98
2022-11-07T07:39:53.651Z,22.17
2022-11-07T07:41:17.624Z,21.92
2022-11-07T07:42:44.455Z,20.67
2022-11-07T07:44:08.393Z,20.63
2022-11-07T07:45:32.106Z,21.00
2022-11-07T07:46:55.821Z,20.80
2022-11-07T07:48:18.399Z,21.30
2022-11-07T07:49:42.081Z,20.23
2022-11-07T07:51:05.950Z,18.67
2022-11-07T07:52:31.131Z,18.40
2022-11-07T07:53:55.034Z,19.30
2022-11-07T07:55:19.639Z,18.23
2022-11-07T07:56:43.292Z,16.35
2022-11-07T07:58:06.988Z,17.33
2022-11-07T07:59:30.693Z,16.42
2022-11-07T08:00:55.226Z,17.80
2022-11-07T08:02:19.079Z,15.95
2022-11-07T08:04:00.698Z,15.88
2022-11-07T08:05:26.060Z,16.05
2022-11-07T08:06:49.870Z,14.95
2022-11-07T08:08:15.488Z,15.25
2022-11-07T08:09:39.388Z,14.95
2022-11-07T08:10:43.255Z,14.70
2022-11-07T08:12:08.975Z,14.32
2022-11-07T08:13:27.398Z,14.40
2022-11-07T08:14:30.208Z,13.98
2022-11-07T08:15:34.054Z,13.85
2022-11-07T08:16:37.875Z,14.07
2022-11-07T08:17:40.848Z,11.35
2022-11-07T08:18:44.548Z,11.07
2022-11-07T08:19:47.250Z,11.60
2022-11-07T08:20:51.606Z,11.35
2022-11-07T08:21:55.532Z,11.38
2022-11-07T08:23:02.041Z,12.23
2022-11-07T08:24:08.080Z,13.38
2022-11-07T08:25:11.719Z,11.60
2022-11-07T08:26:15.598Z,11.52
2022-11-07T08:27:19.353Z,12.27
2022-11-07T08:28:24.671Z,9.90
2022-11-07T08:29:28.438Z,11.18
2022-11-07T08:30:31.946Z,10.25
2022-11-07T08:31:35.649Z,9.98
2022-11-07T08:32:39.438Z,10.38
2022-11-07T08:33:43.360Z,9.77
2022-11-07T08:34:46.161Z,10.15
2022-11-07T08:35:49.918Z,9.63
2022-11-07T08:36:53.708Z,9.73
2022-11-07T08:37:56.713Z,9.52
2022-11-07T08:39:00.458Z,8.93
2022-11-07T08:40:05.133Z,9.13
2022-11-07T08:41:08.960Z,9.02
2022-11-07T08:42:12.728Z,9.00
2022-11-07T08:43:18.673Z,8.07
2022-11-07T08:44:22.707Z,7.97
2022-11-07T08:45:25.340Z,8.82
2022-11-07T08:46:29.093Z,7.85
2022-11-07T08:47:31.737Z,7.57
2022-11-07T08:48:35.538Z,7.40
2022-11-07T08:49:39.212Z,8.05
2022-11-07T08:50:42.168Z,8.25
2022-11-07T08:51:45.859Z,7.05
2022-11-07T08:52:49.661Z,6.10
2022-11-07T08:53:53.385Z,7.00
2022-11-07T08:54:56.008Z,7.10
2022-11-07T08:56:04.548Z,6.82
2022-11-07T08:57:07.250Z,5.82
2022-11-07T08:58:11.529Z,5.90
2022-11-07T08:59:15.442Z,5.63
2022-11-07T09:00:19.648Z,5.60
2022-11-07T09:01:23.531Z,5.35
2022-11-07T09:03:56.500Z,5.55
2022-11-07T09:05:00.750Z,4.95
2022-11-07T09:06:05.111Z,5.38
2022-11-07T09:07:07.777Z,4.65
2022-11-07T09:08:11.452Z,4.00
2022-11-07T09:09:16.612Z,4.05
2022-11-07T09:10:20.577Z,4.45
2022-11-07T09:11:25.969Z,4.35
2022-11-07T09:12:29.729Z,4.00
2022-11-07T09:13:34.531Z,4.85
2022-11-07T09:14:37.211Z,4.75
2022-11-07T09:15:43.845Z,5.65
2022-11-07T09:16:50.501Z,7.15
2022-11-07T09:17:54.278Z,4.53
2022-11-07T09:18:56.978Z,5.70
2022-11-07T09:20:00.675Z,8.73
2022-11-07T09:21:04.480Z,6.07
2022-11-07T09:22:08.202Z,5.75
2022-11-07T09:23:11.951Z,4.57
2022-11-07T09:24:15.739Z,5.57
2022-11-07T09:25:19.493Z,4.78
2022-11-07T09:26:23.279Z,4.82
2022-11-07T09:27:27.498Z,4.93
2022-11-07T09:28:32.399Z,4.25
2022-11-07T09:29:36.986Z,4.47
2022-11-07T09:30:41.931Z,5.13
2022-11-07T09:31:45.710Z,5.07
2022-11-07T09:32:48.525Z,8.90
2022-11-07T09:33:52.200Z,10.80
2022-11-07T09:34:58.308Z,6.80
2022-11-07T09:36:03.477Z,8.30
2022-11-07T09:37:07.395Z,5.43
2022-11-07T09:38:11.239Z,6.00
2022-11-07T09:39:14.945Z,5.80
2022-11-07T09:40:24.829Z,5.05
2022-11-07T09:41:35.137Z,4.85
2022-11-07T09:42:46.567Z,4.90
2022-11-07T09:43:59.775Z,4.70
2022-11-07T09:45:02.619Z,5.38
2022-11-07T09:46:14.949Z,5.80
2022-11-07T09:47:22.459Z,5.22
2022-11-07T09:48:27.970Z,4.60
2022-11-07T09:49:35.627Z,6.10
2022-11-07T09:50:39.986Z,5.10
2022-11-07T09:51:47.400Z,5.15
2022-11-07T09:52:55.282Z,5.28
2022-11-07T09:54:02.488Z,4.72
2022-11-07T09:55:13.510Z,4.78
2022-11-07T09:56:17.449Z,4.70
2022-11-07T09:57:21.630Z,4.72
2022-11-07T09:58:29.207Z,5.90
2022-11-07T09:59:39.369Z,4.82
2022-11-07T10:00:43.403Z,5.63
2022-11-07T10:01:47.326Z,5.25
2022-11-07T10:02:54.179Z,4.60
2022-11-07T10:04:23.743Z,6.53
2022-11-07T10:05:31.807Z,5.03
2022-11-07T10:06:37.927Z,4.30
2022-11-07T10:07:47.481Z,4.75
2022-11-07T10:08:53.850Z,6.10
2022-11-07T10:10:02.431Z,4.75
2022-11-07T10:11:09.628Z,5.22
2022-11-07T10:12:23.897Z,4.60
2022-11-07T10:13:53.830Z,4.65
2022-11-07T10:15:03.628Z,5.65
2022-11-07T10:16:11.431Z,5.68
2022-11-07T10:17:21.680Z,5.88
2022-11-07T10:18:34.015Z,6.50
2022-11-07T10:19:52.258Z,6.15
2022-11-07T10:21:31.191Z,5.35
2022-11-07T10:22:34.408Z,5.75
2022-11-07T10:23:49.248Z,6.28
2022-11-07T10:25:06.525Z,5.85
2022-11-07T10:26:12.435Z,6.65
2022-11-07T10:27:22.756Z,6.18
2022-11-07T10:28:26.689Z,7.53
2022-11-07T10:29:44.683Z,5.30
2022-11-07T10:30:51.134Z,6.20
2022-11-07T10:31:57.592Z,10.30
2022-11-07T10:33:07.120Z,8.27
2022-11-07T10:34:16.581Z,8.48
2022-11-07T10:35:24.861Z,5.45
2022-11-07T10:36:30.001Z,11.98
2022-11-07T10:37:33.808Z,6.90
2022-11-07T10:38:41.329Z,5.55
2022-11-07T10:39:45.017Z,6.20
2022-11-07T10:40:48.018Z,4.97
2022-11-07T10:42:01.658Z,5.28
2022-11-07T10:43:08.989Z,6.28
2022-11-07T10:44:15.699Z,5.30
2022-11-07T10:45:19.747Z,5.90
2022-11-07T10:46:26.641Z,5.05
2022-11-07T10:47:30.288Z,6.50
2022-11-07T10:48:34.020Z,5.88
2022-11-07T10:49:37.819Z,4.90
2022-11-07T10:50:41.553Z,5.10
2022-11-07T10:51:44.293Z,5.07
2022-11-07T10:52:54.768Z,5.20
2022-11-07T10:53:59.841Z,6.10
2022-11-07T10:55:09.548Z,6.00
2022-11-07T10:56:14.760Z,4.95
2022-11-07T10:57:20.881Z,4.53
2022-11-07T10:58:25.226Z,5.68
2022-11-07T10:59:35.913Z,5.35
2022-11-07T11:00:44.789Z,5.55
2022-11-07T11:01:51.951Z,5.47
2022-11-07T11:02:56.901Z,5.18
2022-11-07T11:03:59.645Z,4.93
2022-11-07T11:05:05.169Z,4.97
2022-11-07T11:06:13.279Z,4.53
2022-11-07T11:07:16.977Z,4.50
2022-11-07T11:08:22.897Z,4.95
2022-11-07T11:09:31.258Z,4.95
2022-11-07T11:10:40.024Z,5.22
2022-11-07T11:11:47.091Z,4.93
2022-11-07T11:12:50.372Z,5.20
2022-11-07T11:14:03.219Z,5.90
2022-11-07T11:15:10.960Z,5.18
2022-11-07T11:16:25.507Z,5.30
2022-11-07T11:17:29.252Z,5.07
2022-11-07T11:18:33.069Z,5.43
2022-11-07T11:19:42.341Z,5.70
2022-11-07T11:20:47.197Z,4.72
2022-11-07T11:21:52.515Z,4.95
2022-11-07T11:22:55.399Z,4.85
2022-11-07T11:23:59.120Z,5.72
2022-11-07T11:25:05.729Z,5.40
2022-11-07T11:26:14.462Z,5.18
2022-11-07T11:27:20.861Z,4.83
2022-11-07T11:28:28.432Z,5.93
2022-11-07T11:29:39.700Z,6.05
2022-11-07T11:30:44.161Z,4.75
2022-11-07T11:31:50.450Z,4.75
2022-11-07T11:32:58.989Z,4.65
2022-11-07T11:34:06.332Z,4.40
2022-11-07T11:35:21.361Z,8.60
2022-11-07T11:36:25.850Z,10.88
2022-11-07T11:37:29.732Z,4.38
2022-11-07T11:38:37.684Z,4.25
2022-11-07T11:39:44.416Z,5.40
2022-11-07T11:40:51.002Z,5.28
2022-11-07T11:41:56.282Z,4.20
2022-11-07T11:43:04.321Z,4.68
2022-11-07T11:44:15.520Z,4.32
2022-11-07T11:45:22.979Z,4.78
2022-11-07T11:46:30.388Z,4.43
2022-11-07T11:47:38.488Z,4.22
2022-11-07T11:48:45.858Z,4.32
2022-11-07T11:49:51.240Z,5.53
2022-11-07T11:50:58.759Z,4.30
2022-11-07T11:52:07.113Z,5.20
2022-11-07T11:53:16.366Z,4.55
2022-11-07T11:54:20.338Z,4.85
2022-11-07T11:55:25.560Z,4.57
2022-11-07T11:56:39.529Z,5.25
2022-11-07T11:57:50.180Z,4.95
2022-11-07T11:59:06.061Z,5.28
2022-11-07T12:00:11.720Z,5.00
2022-11-07T12:01:23.183Z,4.75
2022-11-07T12:02:39.173Z,4.35
2022-11-07T12:03:53.102Z,4.97
2022-11-07T12:04:58.891Z,4.60
2022-11-07T12:06:16.663Z,4.20
2022-11-07T12:07:37.172Z,4.30
2022-11-07T12:09:05.221Z,4.20
2022-11-07T12:10:14.948Z,4.20
2022-11-07T12:11:22.563Z,4.63
2022-11-07T12:12:29.769Z,4.32
2022-11-07T12:13:37.590Z,3.97
2022-11-07T12:15:09.281Z,4.68
2022-11-07T12:16:22.282Z,4.20
2022-11-07T12:17:33.497Z,4.57
2022-11-07T12:18:43.508Z,4.25
2022-11-07T12:19:52.562Z,4.57
2022-11-07T12:21:13.400Z,4.72
2022-11-07T12:22:24.969Z,4.43
2022-11-07T12:23:41.746Z,4.50
2022-11-07T12:24:49.147Z,5.30
2022-11-07T12:25:57.131Z,5.05
2022-11-07T12:27:06.906Z,5.03
2022-11-07T12:28:29.961Z,4.72
2022-11-07T12:29:49.370Z,4.32
2022-11-07T12:30:57.921Z,5.15
2022-11-07T12:32:11.851Z,4.30
2022-11-07T12:33:25.158Z,4.55
2022-11-07T12:34:40.523Z,4.57
2022-11-07T12:35:47.712Z,4.50
2022-11-07T12:36:59.290Z,6.22
2022-11-07T12:38:29.317Z,4.78
2022-11-07T12:39:51.780Z,4.45
2022-11-07T12:41:01.948Z,4.95
2022-11-07T12:42:09.365Z,4.10
2022-11-07T12:43:23.477Z,5.15
2022-11-07T12:44:43.572Z,5.53
2022-11-07T12:45:55.520Z,4.97
2022-11-07T12:47:00.450Z,4.97
2022-11-07T12:48:22.391Z,3.95
2022-11-07T12:49:38.476Z,3.67
2022-11-07T12:50:46.813Z,7.85
2022-11-07T12:51:57.277Z,5.32
2022-11-07T12:53:09.721Z,4.70
2022-11-07T12:54:31.802Z,5.28
2022-11-07T12:55:41.669Z,5.63
2022-11-07T12:56:47.328Z,6.07
2022-11-07T12:57:54.133Z,4.45
2022-11-07T12:58:56.820Z,4.30
2022-11-07T13:00:06.792Z,5.05
2022-11-07T13:01:13.487Z,5.05
2022-11-07T13:02:27.572Z,4.97
2022-11-07T13:03:53.076Z,4.75
2022-11-07T13:05:02.158Z,4.60
2022-11-07T13:06:15.419Z,4.50
2022-11-07T13:07:23.792Z,4.40
2022-11-07T13:08:35.043Z,4.32
2022-11-07T13:09:42.691Z,5.60
2022-11-07T13:10:52.160Z,3.78
2022-11-07T13:12:00.598Z,3.78
2022-11-07T13:13:06.729Z,4.07
2022-11-07T13:14:32.335Z,3.75
2022-11-07T13:16:00.802Z,5.93
2022-11-07T13:17:15.299Z,4.72
2022-11-07T13:18:22.634Z,3.47
2022-11-07T13:19:32.881Z,5.53
2022-11-07T13:20:38.514Z,5.18
2022-11-07T13:21:43.639Z,4.38
2022-11-07T13:22:47.727Z,4.18
2022-11-07T13:23:51.541Z,4.10
2022-11-07T13:24:58.420Z,3.72
2022-11-07T13:26:32.455Z,4.03
2022-11-07T13:27:34.878Z,4.40
2022-11-07T13:28:40.054Z,4.90
2022-11-07T13:29:45.358Z,4.20
2022-11-07T13:30:55.701Z,6.07
2022-11-07T13:32:11.072Z,4.30
2022-11-07T13:33:26.839Z,4.32
2022-11-07T13:34:30.550Z,4.82
2022-11-07T13:35:35.472Z,6.72
2022-11-07T13:36:41.179Z,4.05
2022-11-07T13:37:48.257Z,6.75
2022-11-07T13:38:54.518Z,5.35
2022-11-07T13:40:03.699Z,5.22
2022-11-07T13:41:09.420Z,4.43
2022-11-07T13:42:15.598Z,3.92
2022-11-07T13:43:20.679Z,4.57
2022-11-07T13:44:28.090Z,6.80
2022-11-07T13:45:34.208Z,6.07
2022-11-07T13:46:43.609Z,4.68
2022-11-07T13:47:46.519Z,7.43
2022-11-07T13:48:52.578Z,4.80
2022-11-07T13:50:00.328Z,4.45
2022-11-07T13:51:07.876Z,5.63
2022-11-07T13:52:18.478Z,5.10
2022-11-07T13:53:27.688Z,5.35
2022-11-07T13:54:37.709Z,4.13
2022-11-07T13:55:46.091Z,4.28
2022-11-07T13:56:54.900Z,4.53
2022-11-07T13:58:03.800Z,4.45
2022-11-07T13:59:14.052Z,4.28
2022-11-07T14:00:21.475Z,4.47
2022-11-07T14:01:25.501Z,4.30
2022-11-07T14:02:30.944Z,4.90
2022-11-07T14:03:34.899Z,4.93
2022-11-07T14:04:44.710Z,4.88
2022-11-07T14:06:03.318Z,6.30
2022-11-07T14:07:06.078Z,5.05
2022-11-07T14:08:26.780Z,4.95
2022-11-07T14:09:31.698Z,5.32
2022-11-07T14:10:40.284Z,4.75
2022-11-07T14:11:43.142Z,5.10
2022-11-07T14:12:47.594Z,4.53
2022-11-07T14:13:51.965Z,5.00
2022-11-07T14:14:59.508Z,4.20
2022-11-07T14:16:05.028Z,4.57
2022-11-07T14:17:15.278Z,4.90
2022-11-07T14:18:20.146Z,4.47
2022-11-07T14:19:26.908Z,4.35
2022-11-07T14:20:30.439Z,4.50
2022-11-07T14:21:35.727Z,10.02
2022-11-07T14:22:38.518Z,4.75
2022-11-07T14:23:46.379Z,4.80
2022-11-07T14:24:53.072Z,5.53
2022-11-07T14:25:58.958Z,4.97
2022-11-07T14:27:03.800Z,5.47
2022-11-07T14:28:09.088Z,4.47
2022-11-07T14:29:22.838Z,4.60
2022-11-07T14:30:26.953Z,4.50
2022-11-07T14:31:32.417Z,5.10
2022-11-07T14:32:36.108Z,5.05
2022-11-07T14:33:39.920Z,4.65
2022-11-07T14:34:46.181Z,4.22
2022-11-07T14:35:51.501Z,4.28
2022-11-07T14:36:56.682Z,4.57
2022-11-07T14:38:01.280Z,4.20
2022-11-07T14:39:12.906Z,4.57
2022-11-07T14:40:19.921Z,5.40
2022-11-07T14:41:24.550Z,4.50
2022-11-07T14:42:27.641Z,4.85
2022-11-07T14:43:32.552Z,4.65
2022-11-07T14:44:53.731Z,4.45
2022-11-07T14:46:12.395Z,4.45
2022-11-07T14:47:19.150Z,3.83
2022-11-07T14:48:29.724Z,4.15
2022-11-07T14:49:39.666Z,4.60
2022-11-07T14:50:42.590Z,4.28
2022-11-07T14:51:46.371Z,4.30
2022-11-07T14:53:00.866Z,4.30
2022-11-07T14:54:07.673Z,3.70
2022-11-07T14:55:17.908Z,4.50
2022-11-07T14:56:24.030Z,3.85
2022-11-07T14:57:28.000Z,4.15
2022-11-07T14:58:31.124Z,4.05
2022-11-07T14:59:35.778Z,4.15
2022-11-07T15:00:38.882Z,3.75
2022-11-07T15:01:57.270Z,4.25
2022-11-07T15:03:02.032Z,3.72
2022-11-07T15:04:16.470Z,4.20
2022-11-07T15:05:24.626Z,3.95
2022-11-07T15:06:33.811Z,4.07
2022-11-07T15:07:48.190Z,4.45
2022-11-07T15:08:58.259Z,3.80
2022-11-07T15:10:14.271Z,4.70
2022-11-07T15:11:26.960Z,4.38
2022-11-07T15:12:34.919Z,4.05
2022-11-07T15:13:40.068Z,4.35
2022-11-07T15:14:43.878Z,4.00
2022-11-07T15:15:47.691Z,4.38
2022-11-07T15:16:52.499Z,4.75
2022-11-07T15:17:56.978Z,4.80
2022-11-07T15:19:02.226Z,5.00
2022-11-07T15:20:08.687Z,5.13
2022-11-07T15:21:14.952Z,5.10
2022-11-07T15:22:30.720Z,5.50
2022-11-07T15:23:35.928Z,6.90